Time;durP1;ratioP1;P1;durP2;ratioP2;P2;SDS_P1;SDS_P2;PMS_P1;PMS_P2;Temp;Humidity;BMP_temperature;BMP_pressure;BME280_temperature;BME280_humidity;BME280_pressure;Samples;Min_cycle;Max_cycle;Signal;HPM_P1;HPM_P2
2023/06/28 00:00:11;;;;;;;7.50;6.43;;;;;;;;;;6284852;28;20295;-80
2023/06/28 00:03:22;;;;;;;7.90;6.13;;;;;;;;;;6289086;28;20303;-81
2023/06/28 00:06:26;;;;;;;6.63;6.03;;;;;;;;;;6285132;28;20283;-81
2023/06/28 00:09:33;;;;;;;6.22;5.82;;;;;;;;;;6284092;28;20306;-81
2023/06/28 00:12:37;;;;;;;5.88;5.68;;;;;;;;;;6260318;28;20244;-81
2023/06/28 00:15:42;;;;;;;6.68;6.28;;;;;;;;;;6260687;28;20400;-81
2023/06/28 00:18:47;;;;;;;6.68;6.28;;;;;;;;;;6259377;28;20300;-81
2023/06/28 00:21:51;;;;;;;6.35;6.05;;;;;;;;;;6260297;28;20236;-81
2023/06/28 00:24:58;;;;;;;6.55;6.18;;;;;;;;;;6260220;28;20299;-82
2023/06/28 00:28:02;;;;;;;12.27;6.65;;;;;;;;;;6260802;28;20300;-82
2023/06/28 00:31:07;;;;;;;33.10;8.27;;;;;;;;;;6246391;28;20276;-81
2023/06/28 00:34:13;;;;;;;33.95;8.27;;;;;;;;;;6262500;28;20292;-81
2023/06/28 00:37:18;;;;;;;37.80;9.18;;;;;;;;;;6260861;28;20244;-80
2023/06/28 00:40:24;;;;;;;56.80;10.75;;;;;;;;;;6260174;28;20526;-81
2023/06/28 00:43:29;;;;;;;48.08;10.43;;;;;;;;;;6260159;28;20296;-81
2023/06/28 00:46:34;;;;;;;45.40;11.32;;;;;;;;;;6260393;28;20501;-80
2023/06/28 00:49:39;;;;;;;42.47;8.80;;;;;;;;;;6260040;28;20295;-81
2023/06/28 00:52:44;;;;;;;17.05;7.93;;;;;;;;;;6259965;28;20292;-81
2023/06/28 00:55:50;;;;;;;25.48;8.68;;;;;;;;;;6260977;28;20239;-82
2023/06/28 00:58:55;;;;;;;20.38;8.73;;;;;;;;;;6259692;28;20454;-82
2023/06/28 01:02:00;;;;;;;28.17;8.68;;;;;;;;;;6253444;23;20580;-71
2023/06/28 01:05:05;;;;;;;14.05;8.52;;;;;;;;;;6258277;28;20299;-70
2023/06/28 01:08:10;;;;;;;9.05;8.13;;;;;;;;;;6259332;28;20292;-70
2023/06/28 01:11:17;;;;;;;20.20;9.23;;;;;;;;;;6241340;28;20505;-71
2023/06/28 01:14:22;;;;;;;13.00;9.60;;;;;;;;;;6250874;28;20295;-71
2023/06/28 01:17:27;;;;;;;11.15;8.80;;;;;;;;;;6246744;28;20269;-71
2023/06/28 01:20:32;;;;;;;13.02;8.45;;;;;;;;;;6261997;28;20284;-72
2023/06/28 01:23:39;;;;;;;9.52;8.40;;;;;;;;;;6260953;28;20291;-72
2023/06/28 01:26:43;;;;;;;8.18;7.13;;;;;;;;;;6263757;28;20244;-71
2023/06/28 01:29:56;;;;;;;7.28;6.88;;;;;;;;;;6263319;28;20303;-71
2023/06/28 01:33:01;;;;;;;7.72;6.97;;;;;;;;;;6263969;28;20468;-70
2023/06/28 01:36:06;;;;;;;7.90;6.72;;;;;;;;;;6261784;28;20267;-71
2023/06/28 01:39:14;;;;;;;7.93;7.28;;;;;;;;;;6262257;28;20319;-71
2023/06/28 01:42:21;;;;;;;6.18;5.85;;;;;;;;;;6261593;28;20268;-71
2023/06/28 01:45:26;;;;;;;6.45;6.07;;;;;;;;;;6261080;28;20430;-71
2023/06/28 01:48:31;;;;;;;6.32;5.70;;;;;;;;;;6262287;28;20296;-71
2023/06/28 01:51:37;;;;;;;5.60;5.30;;;;;;;;;;6262842;28;20508;-70
2023/06/28 01:54:43;;;;;;;6.68;6.18;;;;;;;;;;6261535;28;20299;-70
2023/06/28 01:57:48;;;;;;;5.47;5.22;;;;;;;;;;6262583;28;20296;-71
2023/06/28 02:00:53;;;;;;;5.90;5.60;;;;;;;;;;6261064;28;20331;-71
2023/06/28 02:03:58;;;;;;;5.97;5.57;;;;;;;;;;6260197;28;20304;-71
2023/06/28 02:07:03;;;;;;;5.88;5.55;;;;;;;;;;6262714;28;20237;-71
2023/06/28 02:10:11;;;;;;;5.47;5.28;;;;;;;;;;6262303;28;20303;-71
2023/06/28 02:13:16;;;;;;;6.00;5.50;;;;;;;;;;6261820;28;20493;-71
2023/06/28 02:16:22;;;;;;;5.88;5.43;;;;;;;;;;6262855;28;20244;-70
2023/06/28 02:19:33;;;;;;;6.05;5.63;;;;;;;;;;6260562;28;20300;-71
2023/06/28 02:22:38;;;;;;;6.68;6.18;;;;;;;;;;6262132;28;20244;-71
2023/06/28 02:25:44;;;;;;;5.70;5.30;;;;;;;;;;6262514;28;20233;-71
2023/06/28 02:28:48;;;;;;;6.93;6.22;;;;;;;;;;6261765;28;20498;-70
2023/06/28 02:31:53;;;;;;;6.20;5.80;;;;;;;;;;6262164;28;20236;-71
2023/06/28 02:34:59;;;;;;;6.35;5.80;;;;;;;;;;6260180;28;20300;-71
2023/06/28 02:38:04;;;;;;;6.20;5.80;;;;;;;;;;6261854;28;20292;-70
2023/06/28 02:41:10;;;;;;;6.63;6.22;;;;;;;;;;6261714;28;20602;-71
2023/06/28 02:44:16;;;;;;;6.30;5.80;;;;;;;;;;6261743;28;20292;-71
2023/06/28 02:47:22;;;;;;;8.35;6.07;;;;;;;;;;6260588;28;20558;-70
2023/06/28 02:50:27;;;;;;;6.30;5.63;;;;;;;;;;6259649;28;20288;-70
2023/06/28 02:53:37;;;;;;;6.70;6.30;;;;;;;;;;6259346;28;20482;-71
2023/06/28 02:56:43;;;;;;;6.38;5.80;;;;;;;;;;6259791;28;20268;-70
2023/06/28 02:59:57;;;;;;;6.10;5.90;;;;;;;;;;6262803;28;20300;-71
2023/06/28 03:03:03;;;;;;;6.50;6.00;;;;;;;;;;6245798;28;20331;-71
2023/06/28 03:06:10;;;;;;;6.10;5.80;;;;;;;;;;6235662;28;20289;-71
2023/06/28 03:09:14;;;;;;;6.78;6.32;;;;;;;;;;6234508;28;20292;-71
2023/06/28 03:12:20;;;;;;;6.53;6.13;;;;;;;;;;6236561;28;20265;-71
2023/06/28 03:15:25;;;;;;;6.03;5.65;;;;;;;;;;6233904;28;20372;-71
2023/06/28 03:18:30;;;;;;;7.10;6.50;;;;;;;;;;6234507;28;20272;-71
2023/06/28 03:21:35;;;;;;;5.65;5.32;;;;;;;;;;6234935;28;20300;-70
2023/06/28 03:24:41;;;;;;;6.65;6.03;;;;;;;;;;6234122;28;20421;-70
2023/06/28 03:27:47;;;;;;;5.65;5.43;;;;;;;;;;6235828;28;20242;-70
2023/06/28 03:30:52;;;;;;;5.88;5.45;;;;;;;;;;6234005;28;20292;-73
2023/06/28 03:33:56;;;;;;;6.10;5.60;;;;;;;;;;6235516;28;20489;-70
2023/06/28 03:37:02;;;;;;;6.20;5.85;;;;;;;;;;6235627;28;20244;-70
2023/06/28 03:40:10;;;;;;;6.22;5.90;;;;;;;;;;6233474;28;20296;-70
2023/06/28 03:43:16;;;;;;;7.18;6.57;;;;;;;;;;6235623;28;20250;-72
2023/06/28 03:46:22;;;;;;;6.82;6.22;;;;;;;;;;6232991;28;20280;-71
2023/06/28 03:49:26;;;;;;;6.78;6.18;;;;;;;;;;6235225;28;20296;-72
2023/06/28 03:52:32;;;;;;;6.40;6.10;;;;;;;;;;6234179;28;20272;-70
2023/06/28 03:55:37;;;;;;;7.75;7.00;;;;;;;;;;6235228;28;20554;-71
2023/06/28 03:58:43;;;;;;;8.50;6.70;;;;;;;;;;6234504;28;20292;-71
2023/06/28 04:01:47;;;;;;;7.30;6.57;;;;;;;;;;6235446;28;20316;-70
2023/06/28 04:04:54;;;;;;;7.35;6.60;;;;;;;;;;6235318;28;20288;-73
2023/06/28 04:07:58;;;;;;;6.68;6.38;;;;;;;;;;6235635;28;20241;-71
2023/06/28 04:11:03;;;;;;;6.80;6.38;;;;;;;;;;6234572;28;20305;-71
2023/06/28 04:14:09;;;;;;;7.05;6.65;;;;;;;;;;6235070;28;20296;-70
2023/06/28 04:17:14;;;;;;;7.10;6.60;;;;;;;;;;6235319;28;20241;-71
2023/06/28 04:20:19;;;;;;;6.90;6.40;;;;;;;;;;6234687;28;20309;-71
2023/06/28 04:23:24;;;;;;;6.55;6.25;;;;;;;;;;6234624;28;20276;-72
2023/06/28 04:26:28;;;;;;;6.90;6.40;;;;;;;;;;6235668;28;20240;-71
2023/06/28 04:29:35;;;;;;;6.93;6.40;;;;;;;;;;6234535;28;20392;-71
2023/06/28 04:32:39;;;;;;;6.90;6.40;;;;;;;;;;6237473;28;20261;-71
2023/06/28 04:35:46;;;;;;;6.85;6.35;;;;;;;;;;6234284;28;20588;-70
2023/06/28 04:38:52;;;;;;;7.03;6.45;;;;;;;;;;6233981;28;20308;-70
2023/06/28 04:41:57;;;;;;;6.28;5.95;;;;;;;;;;6234354;28;20264;-70
2023/06/28 04:45:06;;;;;;;6.40;6.07;;;;;;;;;;6234036;28;20318;-70
2023/06/28 04:48:10;;;;;;;6.70;6.20;;;;;;;;;;6234181;28;20253;-71
2023/06/28 04:51:15;;;;;;;6.75;6.30;;;;;;;;;;6238654;28;20304;-70
2023/06/28 04:54:20;;;;;;;6.40;6.10;;;;;;;;;;6238811;28;20312;-70
2023/06/28 04:57:25;;;;;;;8.50;5.85;;;;;;;;;;6239051;28;20323;-72
2023/06/28 05:00:31;;;;;;;6.97;6.57;;;;;;;;;;6238851;28;20305;-71
2023/06/28 05:03:38;;;;;;;6.63;6.00;;;;;;;;;;6245228;28;20311;-71
2023/06/28 05:06:43;;;;;;;7.10;6.38;;;;;;;;;;6263818;28;20333;-70
2023/06/28 05:09:48;;;;;;;7.43;6.07;;;;;;;;;;6263233;28;20562;-69
2023/06/28 05:12:53;;;;;;;6.45;6.05;;;;;;;;;;6263483;28;20247;-72
2023/06/28 05:15:59;;;;;;;6.47;6.00;;;;;;;;;;6261658;28;20432;-70
2023/06/28 05:19:04;;;;;;;7.10;5.95;;;;;;;;;;6262989;28;20299;-70
2023/06/28 05:22:09;;;;;;;6.32;6.03;;;;;;;;;;6263630;28;20521;-71
2023/06/28 05:25:14;;;;;;;6.13;5.82;;;;;;;;;;6262720;28;20299;-70
2023/06/28 05:28:19;;;;;;;6.05;5.55;;;;;;;;;;6262948;28;20251;-70
2023/06/28 05:31:25;;;;;;;6.30;6.00;;;;;;;;;;6262484;28;20272;-70
2023/06/28 05:34:29;;;;;;;6.15;5.85;;;;;;;;;;6262839;28;20296;-69
2023/06/28 05:37:34;;;;;;;8.63;6.05;;;;;;;;;;6262902;28;20470;-71
2023/06/28 05:40:39;;;;;;;7.32;6.03;;;;;;;;;;6261695;28;20296;-70
2023/06/28 05:43:45;;;;;;;6.10;5.80;;;;;;;;;;6261885;28;20615;-70
2023/06/28 05:46:52;;;;;;;6.47;5.60;;;;;;;;;;6262936;28;20251;-70
2023/06/28 05:49:57;;;;;;;5.68;5.43;;;;;;;;;;6262269;28;20299;-71
2023/06/28 05:53:02;;;;;;;6.00;5.45;;;;;;;;;;6262401;28;20248;-70
2023/06/28 05:56:07;;;;;;;5.65;5.35;;;;;;;;;;6261484;28;20296;-70
2023/06/28 05:59:11;;;;;;;5.90;5.57;;;;;;;;;;6261830;28;20284;-69
2023/06/28 06:02:17;;;;;;;5.70;5.25;;;;;;;;;;6262542;28;20299;-70
2023/06/28 06:05:22;;;;;;;5.97;5.68;;;;;;;;;;6261635;28;20449;-70
2023/06/28 06:08:27;;;;;;;5.65;5.15;;;;;;;;;;6261918;28;20236;-71
2023/06/28 06:11:32;;;;;;;5.38;5.07;;;;;;;;;;6262285;28;20477;-71
2023/06/28 06:14:36;;;;;;;6.10;5.63;;;;;;;;;;6262338;28;20305;-70
2023/06/28 06:17:42;;;;;;;5.05;4.85;;;;;;;;;;6262039;28;20377;-71
2023/06/28 06:20:48;;;;;;;5.47;5.25;;;;;;;;;;6261675;28;20307;-70
2023/06/28 06:23:52;;;;;;;5.60;5.10;;;;;;;;;;6243491;28;20291;-70
2023/06/28 06:26:58;;;;;;;5.38;5.13;;;;;;;;;;6261977;28;20241;-70
2023/06/28 06:30:03;;;;;;;6.47;5.10;;;;;;;;;;6261416;28;20368;-70
2023/06/28 06:33:09;;;;;;;6.40;5.13;;;;;;;;;;6261480;28;20245;-71
2023/06/28 06:36:14;;;;;;;5.00;4.80;;;;;;;;;;6261666;28;20311;-69
2023/06/28 06:39:19;;;;;;;5.38;5.07;;;;;;;;;;6261994;28;20291;-71
2023/06/28 06:42:23;;;;;;;5.35;5.15;;;;;;;;;;6261870;28;20268;-69
2023/06/28 06:45:28;;;;;;;5.63;4.80;;;;;;;;;;6259789;28;20399;-70
2023/06/28 06:48:36;;;;;;;5.07;4.90;;;;;;;;;;6261112;28;20364;-70
2023/06/28 06:51:41;;;;;;;5.45;5.25;;;;;;;;;;6261672;28;20325;-69
2023/06/28 06:54:46;;;;;;;5.28;5.03;;;;;;;;;;6261461;28;20303;-70
2023/06/28 06:57:51;;;;;;;5.35;4.93;;;;;;;;;;6263596;28;20465;-69
2023/06/28 07:00:55;;;;;;;5.18;4.78;;;;;;;;;;6262129;28;20299;-70
2023/06/28 07:04:01;;;;;;;5.53;5.28;;;;;;;;;;6262260;28;20295;-70
2023/06/28 07:07:06;;;;;;;5.43;5.03;;;;;;;;;;6263080;28;20239;-69
2023/06/28 07:10:11;;;;;;;4.80;4.60;;;;;;;;;;6262350;28;20276;-70
2023/06/28 07:13:16;;;;;;;4.60;4.40;;;;;;;;;;6262092;28;20248;-70
2023/06/28 07:16:21;;;;;;;5.13;4.80;;;;;;;;;;6260839;28;20271;-69
2023/06/28 07:19:27;;;;;;;5.45;5.05;;;;;;;;;;6259704;28;20375;-69
2023/06/28 07:22:32;;;;;;;5.75;5.10;;;;;;;;;;6261476;28;20373;-68
2023/06/28 07:25:38;;;;;;;6.00;4.68;;;;;;;;;;6260799;28;20303;-68
2023/06/28 07:28:44;;;;;;;5.30;5.10;;;;;;;;;;6260547;28;21443;-68
2023/06/28 07:31:48;;;;;;;5.90;5.60;;;;;;;;;;6261631;28;20243;-71
2023/06/28 07:34:55;;;;;;;7.22;4.97;;;;;;;;;;6260703;28;20319;-68
2023/06/28 07:37:59;;;;;;;5.05;4.75;;;;;;;;;;6261210;28;20255;-69
2023/06/28 07:41:04;;;;;;;5.15;4.80;;;;;;;;;;6260288;28;20303;-70
2023/06/28 07:44:11;;;;;;;5.05;4.65;;;;;;;;;;6260387;28;20291;-71
2023/06/28 07:47:16;;;;;;;4.82;4.63;;;;;;;;;;6261018;28;20236;-70
2023/06/28 07:50:22;;;;;;;5.07;4.97;;;;;;;;;;6260656;28;20300;-71
2023/06/28 07:53:27;;;;;;;4.78;4.30;;;;;;;;;;6259961;28;20244;-71
2023/06/28 07:56:32;;;;;;;4.80;4.70;;;;;;;;;;6258853;28;20267;-69
2023/06/28 07:59:37;;;;;;;4.78;4.57;;;;;;;;;;6260438;28;20312;-70
2023/06/28 08:02:41;;;;;;;4.30;4.20;;;;;;;;;;6260421;28;20292;-70
2023/06/28 08:05:47;;;;;;;4.70;4.57;;;;;;;;;;6260140;28;20299;-69
2023/06/28 08:08:52;;;;;;;4.95;4.32;;;;;;;;;;6257732;28;20288;-70
2023/06/28 08:11:57;;;;;;;8.95;4.70;;;;;;;;;;6259730;28;20235;-71
2023/06/28 08:15:01;;;;;;;4.60;4.43;;;;;;;;;;6259614;28;20304;-70
2023/06/28 08:18:09;;;;;;;4.80;4.50;;;;;;;;;;6260200;28;20236;-69
2023/06/28 08:21:15;;;;;;;4.90;4.70;;;;;;;;;;6259124;28;20295;-69
2023/06/28 08:24:20;;;;;;;5.78;5.43;;;;;;;;;;6258988;28;20291;-69
2023/06/28 08:27:25;;;;;;;5.03;4.63;;;;;;;;;;6259767;28;20253;-69
2023/06/28 08:30:29;;;;;;;4.85;4.70;;;;;;;;;;6259150;28;20299;-69
2023/06/28 08:33:34;;;;;;;4.68;4.45;;;;;;;;;;6259150;28;20249;-69
2023/06/28 08:36:40;;;;;;;5.13;4.78;;;;;;;;;;6260071;28;20517;-69
2023/06/28 08:39:45;;;;;;;4.55;4.40;;;;;;;;;;6259714;28;20303;-70
2023/06/28 08:42:50;;;;;;;5.00;4.63;;;;;;;;;;6259272;28;20240;-70
2023/06/28 08:45:55;;;;;;;4.82;4.47;;;;;;;;;;6258861;28;20315;-69
2023/06/28 08:49:00;;;;;;;5.10;4.40;;;;;;;;;;6258791;28;20400;-71
2023/06/28 08:52:07;;;;;;;4.18;3.97;;;;;;;;;;6258874;28;20319;-69
2023/06/28 08:55:12;;;;;;;5.57;4.43;;;;;;;;;;6259058;28;20295;-70
2023/06/28 08:58:20;;;;;;;4.40;4.20;;;;;;;;;;6259377;28;20244;-69
2023/06/28 09:01:25;;;;;;;4.38;4.07;;;;;;;;;;6258599;28;20292;-70
2023/06/28 09:04:29;;;;;;;6.82;4.55;;;;;;;;;;6258772;28;20295;-69
2023/06/28 09:07:36;;;;;;;4.47;4.18;;;;;;;;;;6259231;28;20373;-70
2023/06/28 09:10:41;;;;;;;4.68;4.40;;;;;;;;;;6258278;28;20299;-69
2023/06/28 09:13:46;;;;;;;4.05;3.95;;;;;;;;;;6258922;28;20283;-70
2023/06/28 09:16:50;;;;;;;3.95;3.75;;;;;;;;;;6258344;28;20529;-69
2023/06/28 09:19:56;;;;;;;4.15;3.95;;;;;;;;;;6258643;28;20295;-70
2023/06/28 09:23:02;;;;;;;4.63;4.43;;;;;;;;;;6258462;28;20536;-70
2023/06/28 09:26:11;;;;;;;5.20;4.70;;;;;;;;;;6257743;28;20320;-69
2023/06/28 09:29:16;;;;;;;4.97;4.68;;;;;;;;;;6258213;28;20295;-71
2023/06/28 09:32:21;;;;;;;4.20;4.10;;;;;;;;;;6258447;28;20244;-70
2023/06/28 09:35:28;;;;;;;3.78;3.67;;;;;;;;;;6260015;28;20311;-70
2023/06/28 09:38:34;;;;;;;4.70;4.35;;;;;;;;;;6262312;28;20328;-71
2023/06/28 09:41:39;;;;;;;4.90;4.10;;;;;;;;;;6263006;28;20237;-70
2023/06/28 09:44:56;;;;;;;4.30;4.05;;;;;;;;;;6261873;28;20303;-70
2023/06/28 09:48:02;;;;;;;4.53;4.13;;;;;;;;;;6262394;28;20241;-71
2023/06/28 09:51:07;;;;;;;4.18;3.97;;;;;;;;;;6262044;28;20291;-70
2023/06/28 09:54:13;;;;;;;4.40;4.20;;;;;;;;;;6262355;28;20288;-72
2023/06/28 09:57:18;;;;;;;5.65;4.28;;;;;;;;;;6262718;28;20244;-71
2023/06/28 10:00:23;;;;;;;4.10;3.95;;;;;;;;;;6261821;28;20296;-71
2023/06/28 10:03:28;;;;;;;4.18;3.92;;;;;;;;;;6261427;28;20425;-70
2023/06/28 10:06:35;;;;;;;4.25;4.05;;;;;;;;;;6262025;28;20267;-71
2023/06/28 10:09:42;;;;;;;4.30;4.00;;;;;;;;;;6261696;28;20315;-71
2023/06/28 10:12:47;;;;;;;4.30;4.05;;;;;;;;;;6261634;28;20241;-71
2023/06/28 10:15:55;;;;;;;3.53;3.35;;;;;;;;;;6261423;28;20303;-71
2023/06/28 10:19:00;;;;;;;3.97;3.88;;;;;;;;;;6261342;28;20292;-71
2023/06/28 10:22:06;;;;;;;4.00;3.90;;;;;;;;;;6261649;28;20248;-68
2023/06/28 10:25:12;;;;;;;4.35;4.03;;;;;;;;;;6261152;28;20303;-69
2023/06/28 10:28:17;;;;;;;3.83;3.72;;;;;;;;;;6243639;28;20549;-69
2023/06/28 10:31:22;;;;;;;3.80;3.60;;;;;;;;;;6261621;28;20272;-69
2023/06/28 10:34:27;;;;;;;3.80;3.70;;;;;;;;;;6261472;28;20308;-70
2023/06/28 10:37:31;;;;;;;4.13;3.92;;;;;;;;;;6261229;28;20287;-70
2023/06/28 10:40:39;;;;;;;3.85;3.78;;;;;;;;;;6261406;28;20587;-70
2023/06/28 10:43:44;;;;;;;4.05;3.67;;;;;;;;;;6261273;28;20308;-70
2023/06/28 10:47:07;;;;;;;5.03;4.72;;;;;;;;;;6260543;28;20280;-69
2023/06/28 10:50:15;;;;;;;5.13;4.60;;;;;;;;;;6261405;28;20359;-69
2023/06/28 10:53:25;;;;;;;9.20;4.40;;;;;;;;;;6260751;28;20285;-70
2023/06/28 10:56:37;;;;;;;9.05;4.10;;;;;;;;;;6261015;28;20510;-70
2023/06/28 10:59:42;;;;;;;4.07;3.88;;;;;;;;;;6260345;28;20300;-70
2023/06/28 11:02:54;;;;;;;4.63;4.05;;;;;;;;;;6260772;28;20301;-70
2023/06/28 11:05:59;;;;;;;4.47;4.00;;;;;;;;;;6260099;28;20307;-70
2023/06/28 11:09:13;;;;;;;4.50;4.15;;;;;;;;;;6260110;28;20529;-69
2023/06/28 11:12:20;;;;;;;3.58;3.40;;;;;;;;;;6258744;28;20332;-69
2023/06/28 11:15:29;;;;;;;3.53;3.42;;;;;;;;;;6260257;28;20316;-69
2023/06/28 11:18:34;;;;;;;3.88;3.70;;;;;;;;;;6260192;28;20244;-70
2023/06/28 11:21:40;;;;;;;4.45;3.90;;;;;;;;;;6260425;28;20440;-69
2023/06/28 11:24:45;;;;;;;5.07;3.60;;;;;;;;;;6260580;28;20295;-70
2023/06/28 11:27:51;;;;;;;3.90;3.80;;;;;;;;;;6262223;28;20281;-70
2023/06/28 11:31:12;;;;;;;3.92;3.63;;;;;;;;;;6262091;28;20438;-72
2023/06/28 11:34:18;;;;;;;4.25;3.95;;;;;;;;;;6262014;28;20312;-70
2023/06/28 11:37:23;;;;;;;6.40;3.83;;;;;;;;;;6262485;28;20340;-69
2023/06/28 11:40:28;;;;;;;4.13;3.78;;;;;;;;;;6260869;28;20288;-69
2023/06/28 11:43:34;;;;;;;4.60;4.40;;;;;;;;;;6260102;28;20240;-69
2023/06/28 11:46:39;;;;;;;42.22;7.93;;;;;;;;;;6260071;28;20287;-70
2023/06/28 11:49:45;;;;;;;6.70;5.25;;;;;;;;;;6259994;28;20295;-69
2023/06/28 11:52:50;;;;;;;4.75;4.43;;;;;;;;;;6259767;28;20257;-69
2023/06/28 11:55:55;;;;;;;4.38;4.28;;;;;;;;;;6259331;28;20307;-69
2023/06/28 11:59:11;;;;;;;4.30;4.00;;;;;;;;;;6258384;28;20318;-71
2023/06/28 12:02:16;;;;;;;4.30;4.20;;;;;;;;;;6259807;28;20304;-68
2023/06/28 12:05:23;;;;;;;4.10;4.00;;;;;;;;;;6258835;28;20315;-70
2023/06/28 12:08:28;;;;;;;3.78;3.67;;;;;;;;;;6259018;28;20236;-70
2023/06/28 12:11:32;;;;;;;5.30;4.20;;;;;;;;;;6259416;28;20478;-71
2023/06/28 12:14:42;;;;;;;4.13;3.90;;;;;;;;;;6258883;28;20307;-69
2023/06/28 12:17:47;;;;;;;7.07;4.10;;;;;;;;;;6259217;28;20248;-71
2023/06/28 12:20:52;;;;;;;4.50;4.20;;;;;;;;;;6258598;28;20287;-69
2023/06/28 12:24:13;;;;;;;17.23;5.00;;;;;;;;;;6258091;28;20560;-69
2023/06/28 12:27:18;;;;;;;12.95;5.10;;;;;;;;;;6259150;28;20264;-68
2023/06/28 12:30:25;;;;;;;9.43;4.80;;;;;;;;;;6258801;28;20475;-68
2023/06/28 12:33:30;;;;;;;9.05;4.20;;;;;;;;;;6258633;28;20240;-69
2023/06/28 12:36:35;;;;;;;6.05;3.70;;;;;;;;;;6259603;28;20322;-69
2023/06/28 12:39:41;;;;;;;7.03;3.90;;;;;;;;;;6258866;28;20312;-69
2023/06/28 12:42:46;;;;;;;5.07;3.72;;;;;;;;;;6258843;28;20250;-71
2023/06/28 12:45:53;;;;;;;3.72;3.65;;;;;;;;;;6258226;28;20299;-70
2023/06/28 12:49:04;;;;;;;7.53;3.75;;;;;;;;;;6258276;28;20299;-69
2023/06/28 12:52:09;;;;;;;3.85;3.72;;;;;;;;;;6259032;28;20542;-69
2023/06/28 12:55:14;;;;;;;4.60;4.20;;;;;;;;;;6258329;28;20467;-69
2023/06/28 12:58:19;;;;;;;4.30;4.00;;;;;;;;;;6258563;28;20240;-70
2023/06/28 13:01:25;;;;;;;4.43;4.00;;;;;;;;;;6257676;28;20309;-69
2023/06/28 13:04:33;;;;;;;4.18;3.88;;;;;;;;;;6258283;28;20292;-68
2023/06/28 13:07:38;;;;;;;4.28;3.97;;;;;;;;;;6258102;28;20287;-69
2023/06/28 13:10:43;;;;;;;4.65;4.38;;;;;;;;;;6260731;28;20300;-69
2023/06/28 13:13:48;;;;;;;4.15;4.05;;;;;;;;;;6262615;28;20291;-69
2023/06/28 13:16:56;;;;;;;5.18;3.92;;;;;;;;;;6262810;28;20189;-69
2023/06/28 13:20:00;;;;;;;8.20;3.80;;;;;;;;;;6262901;28;20287;-70
2023/06/28 13:23:05;;;;;;;5.65;4.45;;;;;;;;;;6263133;28;20235;-71
2023/06/28 13:26:10;;;;;;;6.00;4.10;;;;;;;;;;6262845;28;20291;-71
2023/06/28 13:29:17;;;;;;;4.70;4.15;;;;;;;;;;6263285;28;20291;-70
2023/06/28 13:32:24;;;;;;;4.22;4.03;;;;;;;;;;6261111;28;20452;-70
2023/06/28 13:35:28;;;;;;;6.75;4.18;;;;;;;;;;6262512;28;20312;-69
2023/06/28 13:38:33;;;;;;;4.50;4.20;;;;;;;;;;6262357;28;20248;-71
2023/06/28 13:41:38;;;;;;;4.30;4.00;;;;;;;;;;6263353;28;20244;-70
2023/06/28 13:44:42;;;;;;;4.40;4.10;;;;;;;;;;6262714;28;20311;-70
2023/06/28 13:47:48;;;;;;;7.60;4.00;;;;;;;;;;6260762;28;20289;-70
2023/06/28 13:50:53;;;;;;;4.07;3.90;;;;;;;;;;6262191;28;20557;-69
2023/06/28 13:53:59;;;;;;;3.55;3.47;;;;;;;;;;6261841;28;20591;-70
2023/06/28 13:57:04;;;;;;;3.88;3.58;;;;;;;;;;6262275;28;20240;-70
2023/06/28 14:00:09;;;;;;;4.95;3.90;;;;;;;;;;6262054;28;20292;-71
2023/06/28 14:03:15;;;;;;;3.72;3.63;;;;;;;;;;6262624;28;20288;-70
2023/06/28 14:06:20;;;;;;;5.18;3.30;;;;;;;;;;6261542;28;20312;-69
2023/06/28 14:09:26;;;;;;;4.10;3.60;;;;;;;;;;6261542;28;20612;-71
2023/06/28 14:12:31;;;;;;;4.10;3.85;;;;;;;;;;6261823;28;20240;-70
2023/06/28 14:15:35;;;;;;;4.10;3.40;;;;;;;;;;6261562;28;20287;-70
2023/06/28 14:18:41;;;;;;;3.85;3.72;;;;;;;;;;6261350;28;20299;-71
2023/06/28 14:21:46;;;;;;;5.70;4.55;;;;;;;;;;6261448;28;20521;-70
2023/06/28 14:24:51;;;;;;;4.63;4.32;;;;;;;;;;6261438;28;20296;-71
2023/06/28 14:27:55;;;;;;;4.63;4.18;;;;;;;;;;6261744;28;20268;-70
2023/06/28 14:31:02;;;;;;;6.55;4.55;;;;;;;;;;6261062;28;20295;-71
2023/06/28 14:34:08;;;;;;;5.65;5.18;;;;;;;;;;6261278;28;20584;-70
2023/06/28 14:37:13;;;;;;;4.80;4.43;;;;;;;;;;6261900;28;20330;-69
2023/06/28 14:40:19;;;;;;;8.00;4.60;;;;;;;;;;6261297;28;20295;-71
2023/06/28 14:43:23;;;;;;;5.50;4.55;;;;;;;;;;6259634;28;20271;-70
2023/06/28 14:46:28;;;;;;;6.10;4.72;;;;;;;;;;6261892;28;20237;-69
2023/06/28 14:49:34;;;;;;;4.40;4.10;;;;;;;;;;6260701;28;20299;-69
2023/06/28 14:52:39;;;;;;;4.50;4.40;;;;;;;;;;6261228;28;20529;-71
2023/06/28 14:55:44;;;;;;;4.53;4.32;;;;;;;;;;6242978;28;20446;-69
2023/06/28 14:58:48;;;;;;;5.18;4.70;;;;;;;;;;6260657;28;20298;-70
2023/06/28 15:01:53;;;;;;;4.50;4.03;;;;;;;;;;6260702;28;20291;-70
2023/06/28 15:04:59;;;;;;;21.95;5.20;;;;;;;;;;6260337;28;20295;-70
2023/06/28 15:08:04;;;;;;;6.53;4.40;;;;;;;;;;6259246;28;20453;-70
2023/06/28 15:11:10;;;;;;;4.53;4.30;;;;;;;;;;6260185;28;20299;-70
2023/06/28 15:14:15;;;;;;;9.38;4.38;;;;;;;;;;6259955;28;20292;-70
2023/06/28 15:17:19;;;;;;;7.18;4.72;;;;;;;;;;6260634;28;20244;-70
2023/06/28 15:20:26;;;;;;;4.13;3.92;;;;;;;;;;6260225;28;20296;-70
2023/06/28 15:23:44;;;;;;;4.45;4.15;;;;;;;;;;6260154;28;20296;-69
2023/06/28 15:26:48;;;;;;;4.38;4.13;;;;;;;;;;6260651;28;20236;-70
2023/06/28 15:29:53;;;;;;;5.22;4.90;;;;;;;;;;6242465;28;20476;-69
2023/06/28 15:32:57;;;;;;;5.03;4.30;;;;;;;;;;6259557;28;20268;-70
2023/06/28 15:36:04;;;;;;;7.18;4.10;;;;;;;;;;6259814;28;20473;-71
2023/06/28 15:39:09;;;;;;;4.10;3.90;;;;;;;;;;6259436;28;20477;-70
2023/06/28 15:42:14;;;;;;;4.30;3.92;;;;;;;;;;6259781;28;20240;-70
2023/06/28 15:45:18;;;;;;;4.22;3.95;;;;;;;;;;6259503;28;20300;-69
2023/06/28 15:48:23;;;;;;;4.07;3.78;;;;;;;;;;6257766;28;20295;-70
2023/06/28 15:51:29;;;;;;;3.50;3.30;;;;;;;;;;6258345;28;20540;-71
2023/06/28 15:54:34;;;;;;;6.45;3.80;;;;;;;;;;6259260;28;20391;-70
2023/06/28 15:57:39;;;;;;;4.35;3.95;;;;;;;;;;6259328;28;20252;-69
2023/06/28 16:00:45;;;;;;;4.72;4.00;;;;;;;;;;6259045;28;20308;-69
2023/06/28 16:03:49;;;;;;;4.15;3.95;;;;;;;;;;6259094;28;20306;-70
2023/06/28 16:06:55;;;;;;;10.27;4.22;;;;;;;;;;6259467;28;20241;-70
2023/06/28 16:10:00;;;;;;;4.95;3.80;;;;;;;;;;6258929;28;20295;-70
2023/06/28 16:13:07;;;;;;;3.97;3.78;;;;;;;;;;6259259;28;20248;-70
2023/06/28 16:16:12;;;;;;;5.80;3.92;;;;;;;;;;6259321;28;20312;-70
2023/06/28 16:19:16;;;;;;;5.45;3.97;;;;;;;;;;6258960;28;20549;-70
2023/06/28 16:22:23;;;;;;;3.97;3.67;;;;;;;;;;6259384;28;20244;-69
2023/06/28 16:25:27;;;;;;;4.72;4.10;;;;;;;;;;6259189;28;20291;-70
2023/06/28 16:28:32;;;;;;;4.40;4.05;;;;;;;;;;6259064;28;20295;-70
2023/06/28 16:31:37;;;;;;;4.78;4.25;;;;;;;;;;6259074;28;20246;-70
2023/06/28 16:34:42;;;;;;;6.10;4.72;;;;;;;;;;6258471;28;20300;-71
2023/06/28 16:37:49;;;;;;;4.75;4.32;;;;;;;;;;6241115;28;20268;-71
2023/06/28 16:40:54;;;;;;;4.70;4.30;;;;;;;;;;6258770;28;20304;-69
2023/06/28 16:43:58;;;;;;;11.65;4.50;;;;;;;;;;6260324;28;20291;-69
2023/06/28 16:47:04;;;;;;;5.57;4.88;;;;;;;;;;6264414;28;20249;-71
2023/06/28 16:50:09;;;;;;;5.55;5.05;;;;;;;;;;6263930;28;20284;-69
2023/06/28 16:53:15;;;;;;;7.07;4.85;;;;;;;;;;6264790;28;20244;-69
2023/06/28 16:56:20;;;;;;;5.32;4.90;;;;;;;;;;6264104;28;20291;-70
2023/06/28 16:59:25;;;;;;;4.65;4.25;;;;;;;;;;6263689;28;20412;-70
2023/06/28 17:02:30;;;;;;;4.82;4.50;;;;;;;;;;6263076;28;20280;-69
2023/06/28 17:05:34;;;;;;;5.72;4.60;;;;;;;;;;6263525;28;20291;-71
2023/06/28 17:08:41;;;;;;;5.25;4.90;;;;;;;;;;6263240;28;20260;-71
2023/06/28 17:11:46;;;;;;;5.10;4.90;;;;;;;;;;6263597;28;20240;-70
2023/06/28 17:14:51;;;;;;;8.40;4.72;;;;;;;;;;6262897;28;20300;-68
2023/06/28 17:17:56;;;;;;;4.75;4.45;;;;;;;;;;6263405;28;20243;-70
2023/06/28 17:21:00;;;;;;;4.95;4.63;;;;;;;;;;6262918;28;20363;-70
2023/06/28 17:24:07;;;;;;;5.22;4.80;;;;;;;;;;6262593;28;20300;-69
2023/06/28 17:27:12;;;;;;;5.78;5.38;;;;;;;;;;6263478;28;20244;-70
2023/06/28 17:30:17;;;;;;;8.20;5.20;;;;;;;;;;6262622;28;20620;-69
2023/06/28 17:33:23;;;;;;;5.38;4.90;;;;;;;;;;6262878;28;20242;-70
2023/06/28 17:36:29;;;;;;;4.90;4.47;;;;;;;;;;6262943;28;20236;-69
2023/06/28 17:39:35;;;;;;;6.88;4.75;;;;;;;;;;6262513;28;20300;-70
2023/06/28 17:42:39;;;;;;;6.97;4.70;;;;;;;;;;6262857;28;20232;-69
2023/06/28 17:45:44;;;;;;;4.93;4.72;;;;;;;;;;6262437;28;20382;-70
2023/06/28 17:48:49;;;;;;;5.28;4.80;;;;;;;;;;6261788;28;20414;-69
2023/06/28 17:51:53;;;;;;;4.88;4.40;;;;;;;;;;6262112;28;20240;-68
2023/06/28 17:54:59;;;;;;;4.72;4.43;;;;;;;;;;6261013;28;20440;-70
2023/06/28 17:58:04;;;;;;;5.15;4.53;;;;;;;;;;6262457;28;20244;-69
2023/06/28 18:01:09;;;;;;;5.32;3.83;;;;;;;;;;6262155;28;20303;-69
2023/06/28 18:04:14;;;;;;;5.15;4.72;;;;;;;;;;6261980;28;20284;-70
2023/06/28 18:07:19;;;;;;;8.80;4.50;;;;;;;;;;6262204;28;20241;-70
2023/06/28 18:10:25;;;;;;;7.38;4.43;;;;;;;;;;6261863;28;20296;-68
2023/06/28 18:13:31;;;;;;;5.03;4.50;;;;;;;;;;6261634;28;20239;-69
2023/06/28 18:16:38;;;;;;;5.00;4.63;;;;;;;;;;6262371;28;20249;-70
2023/06/28 18:19:44;;;;;;;26.98;4.55;;;;;;;;;;6261494;28;20295;-69
2023/06/28 18:22:49;;;;;;;3.80;3.60;;;;;;;;;;6262359;28;20377;-70
2023/06/28 18:25:55;;;;;;;9.05;3.83;;;;;;;;;;6261518;28;20288;-70
2023/06/28 18:29:00;;;;;;;12.30;4.38;;;;;;;;;;6261427;28;20454;-70
2023/06/28 18:32:05;;;;;;;10.88;4.28;;;;;;;;;;6261541;28;20236;-69